EFHK/HEL METAR and TAF weather

Enter ICAO airport designator
Station Type Date Time Source
EFHK METAR 2021/07/30 23:50 UTC NOAA

EFHK 302350Z 25005KT 9999 FEW005 BKN007 14/14 Q0991 NOSIG


Station Type Date Time Source
EFHK Decoded METAR 2021/07/30 23:50 UTC NOAA

Helsinki-Vantaa, Finland (EFHK) 60-19N 024-58E 56M
Jul 30, 2021 - 07:50 PM EDT / 2021.07.30 2350 UTC
Wind: from the WSW (250 degrees) at 6 MPH (5 KT):0
Visibility: greater than 7 mile(s):0
Sky conditions: mostly cloudy
Temperature: 57 F (14 C)
Dew Point: 57 F (14 C)
Relative Humidity: 100%
Pressure (altimeter): 29.26 in. Hg (0991 hPa)
ob: EFHK 302350Z 25005KT 9999 FEW005 BKN007 14/14 Q0991 NOSIG
cycle: 0

Station Type Date Time Source
EFHK TAF 2021/07/30 21:42 UTC NOAA

TAF TAF EFHK 302037Z 3021/3121 19008KT 9999 FEW012 BKN030
TEMPO 3021/3023 7000 SHRA BKN009 SCT030CB
BECMG 3100/3102 28010KT PROB40 3100/3102 5000 BR BKN005 PROB40
TEMPO 3112/3118 FEW050CB

Example: see airport list